Terminal Aerodrome Forecast
Issued by NWS Grand Forks, ND

Home | Current Version | Previous Version | Graphics & Text | Print | Product List | Glossary On
Versions: 1 2 3 4 5 6 7 8 9 10 11 12 13 14 15 16 17 18 19 20
000
FTUS43 KFGF 282326
TAFFAR
TAF
KFAR 282326Z 2900/2924 33011KT P6SM SCT030
      TEMPO 2900/2901 BKN020
     FM290900 32004KT 3SM BR FEW035
      TEMPO 2910/2913 2SM BR BKN020
     FM291400 35004KT P6SM BKN030
     FM291700 34006KT P6SM BKN040=

USA.gov is the U.S. government's official web portal to all federal, state and local government web resources and services.